Time;durP1;ratioP1;P1;durP2;ratioP2;P2;SDS_P1;SDS_P2;PMS_P1;PMS_P2;Temp;Humidity;BMP_temperature;BMP_pressure;BME280_temperature;BME280_humidity;BME280_pressure;Samples;Min_cycle;Max_cycle;Signal;HPM_P1;HPM_P2
2021/01/25 00:00:29;;;;;;;9.87;7.10;;;0.80;99.90;;;;;;5052556;28;20432;-71
2021/01/25 00:02:57;;;;;;;8.20;7.13;;;0.90;99.90;;;;;;5049009;28;20460;-71
2021/01/25 00:05:23;;;;;;;8.70;6.53;;;1.00;99.90;;;;;;5056219;28;20443;-69
2021/01/25 00:07:50;;;;;;;8.07;7.13;;;1.10;99.90;;;;;;5051273;28;20444;-70
2021/01/25 00:10:16;;;;;;;9.27;7.40;;;1.10;99.90;;;;;;5045979;28;20470;-70
2021/01/25 00:12:43;;;;;;;8.63;7.10;;;1.10;99.90;;;;;;5049327;28;20800;-67
2021/01/25 00:15:11;;;;;;;8.03;7.23;;;1.10;99.90;;;;;;5057278;28;20456;-69
2021/01/25 00:17:38;;;;;;;10.83;7.10;;;1.20;99.90;;;;;;5052912;28;20456;-70
2021/01/25 00:20:06;;;;;;;12.50;7.97;;;1.10;99.90;;;;;;5052414;28;20432;-70
2021/01/25 00:22:33;;;;;;;11.00;7.90;;;1.00;99.90;;;;;;5040477;28;20495;-69
2021/01/25 00:24:59;;;;;;;8.03;7.20;;;1.00;99.90;;;;;;5054300;28;20432;-72
2021/01/25 00:27:26;;;;;;;10.43;7.77;;;1.00;99.90;;;;;;5054761;28;20448;-70
2021/01/25 00:29:52;;;;;;;8.37;6.73;;;1.10;99.90;;;;;;5055325;28;20823;-70
2021/01/25 00:32:19;;;;;;;8.07;6.70;;;0.90;99.90;;;;;;5050140;28;20463;-70
2021/01/25 00:34:45;;;;;;;6.37;5.70;;;0.90;99.90;;;;;;5049819;28;20475;-70
2021/01/25 00:37:13;;;;;;;7.97;6.20;;;0.80;99.90;;;;;;5054010;28;20549;-71
2021/01/25 00:39:39;;;;;;;7.53;5.70;;;0.80;99.90;;;;;;5046019;28;20510;-71
2021/01/25 00:42:06;;;;;;;6.70;5.43;;;0.80;99.90;;;;;;5054306;28;21029;-70
2021/01/25 00:44:33;;;;;;;8.90;5.30;;;0.80;99.90;;;;;;5054659;28;20513;-70
2021/01/25 00:46:59;;;;;;;6.40;5.37;;;0.70;99.90;;;;;;5052356;28;20919;-71
2021/01/25 00:49:26;;;;;;;8.67;5.47;;;0.60;99.90;;;;;;5051261;28;20428;-70
2021/01/25 00:51:53;;;;;;;6.47;4.90;;;0.50;99.90;;;;;;5051890;28;20471;-69
2021/01/25 00:54:20;;;;;;;6.80;4.40;;;0.50;99.90;;;;;;5053884;28;20439;-69
2021/01/25 00:56:48;;;;;;;8.80;4.90;;;0.60;99.90;;;;;;5053703;28;20480;-69
2021/01/25 00:59:15;;;;;;;9.20;5.67;;;0.70;99.90;;;;;;5052340;28;20429;-69
2021/01/25 01:01:41;;;;;;;6.50;5.23;;;0.80;99.90;;;;;;5053347;28;20647;-69
2021/01/25 01:04:08;;;;;;;6.50;4.70;;;0.70;99.90;;;;;;5053150;28;20436;-69
2021/01/25 01:06:35;;;;;;;5.97;4.90;;;0.70;99.90;;;;;;5053549;28;20446;-70
2021/01/25 01:09:01;;;;;;;6.50;5.07;;;0.80;99.90;;;;;;5053334;28;20440;-69
2021/01/25 01:11:30;;;;;;;7.50;5.00;;;0.80;99.90;;;;;;5053116;28;20452;-69
2021/01/25 01:13:56;;;;;;;8.40;5.33;;;0.90;99.90;;;;;;5053246;28;20527;-70
2021/01/25 01:16:23;;;;;;;5.80;4.00;;;1.00;99.90;;;;;;5052997;28;20499;-70
2021/01/25 01:18:49;;;;;;;5.00;4.10;;;0.90;99.90;;;;;;5053117;28;20463;-70
2021/01/25 01:21:16;;;;;;;7.20;4.87;;;1.00;99.90;;;;;;5052622;28;21023;-70
2021/01/25 01:23:42;;;;;;;5.20;4.53;;;0.80;99.90;;;;;;5053016;28;20516;-70
2021/01/25 01:26:09;;;;;;;5.10;4.47;;;0.80;99.90;;;;;;5052965;28;20440;-70
2021/01/25 01:28:36;;;;;;;5.30;4.70;;;0.80;99.90;;;;;;5052903;28;20521;-71
2021/01/25 01:31:03;;;;;;;6.17;4.63;;;0.80;99.90;;;;;;5051779;28;20459;-69
2021/01/25 01:33:29;;;;;;;10.03;5.20;;;0.80;99.90;;;;;;5052615;28;20433;-70
2021/01/25 01:35:56;;;;;;;5.37;4.53;;;0.80;99.90;;;;;;5046218;28;20475;-70
2021/01/25 01:38:23;;;;;;;5.40;4.47;;;0.80;99.90;;;;;;5052569;28;20432;-69
2021/01/25 01:40:49;;;;;;;6.30;4.20;;;0.80;99.90;;;;;;5052258;28;21100;-69
2021/01/25 01:43:16;;;;;;;5.03;4.37;;;0.80;99.90;;;;;;5052742;28;20455;-70
2021/01/25 01:45:43;;;;;;;5.53;3.70;;;0.80;99.90;;;;;;5052544;28;20436;-69
2021/01/25 01:48:10;;;;;;;7.40;4.30;;;0.70;99.90;;;;;;5052603;28;20436;-70
2021/01/25 01:50:37;;;;;;;5.80;4.57;;;0.60;99.90;;;;;;5052314;28;20459;-70
2021/01/25 01:53:04;;;;;;;6.33;4.33;;;0.40;99.90;;;;;;5052804;28;20467;-69
2021/01/25 01:55:30;;;;;;;8.13;5.20;;;0.30;99.90;;;;;;5052611;28;20482;-70
2021/01/25 01:57:57;;;;;;;6.33;4.83;;;0.30;99.90;;;;;;5052392;28;20432;-69
2021/01/25 02:00:24;;;;;;;6.30;4.70;;;0.20;99.90;;;;;;5052336;28;20448;-69
2021/01/25 02:02:51;;;;;;;6.13;4.50;;;0.10;99.90;;;;;;5052240;28;20460;-69
2021/01/25 02:05:18;;;;;;;6.23;4.60;;;0.20;99.90;;;;;;5052142;28;20432;-69
2021/01/25 02:07:49;;;;;;;7.73;4.83;;;0.30;99.90;;;;;;5050845;28;20960;-70
2021/01/25 02:10:19;;;;;;;5.70;4.90;;;0.30;99.90;;;;;;5051712;28;20460;-69
2021/01/25 02:12:46;;;;;;;5.60;4.70;;;0.30;99.90;;;;;;5051945;28;20468;-69
2021/01/25 02:15:14;;;;;;;6.73;4.83;;;0.30;99.90;;;;;;5052000;28;20440;-70
2021/01/25 02:17:40;;;;;;;8.20;4.90;;;0.30;99.90;;;;;;5051805;28;20488;-69
2021/01/25 02:20:15;;;;;;;6.97;4.50;;;0.20;99.90;;;;;;5051674;28;20428;-70
2021/01/25 02:23:05;;;;;;;6.30;4.00;;;0.30;99.90;;;;;;5050757;28;20478;-70
2021/01/25 02:25:49;;;;;;;9.33;4.63;;;0.30;99.90;;;;;;5052177;28;20429;-70
2021/01/25 02:28:17;;;;;;;5.63;4.40;;;0.30;99.90;;;;;;5052333;28;20440;-70
2021/01/25 02:30:45;;;;;;;7.17;4.73;;;0.40;99.90;;;;;;5051981;28;20530;-69
2021/01/25 02:33:12;;;;;;;6.70;4.70;;;0.40;99.90;;;;;;5051987;28;20829;-71
2021/01/25 02:35:39;;;;;;;5.80;4.53;;;0.40;99.90;;;;;;5052316;28;20949;-69
2021/01/25 02:38:09;;;;;;;6.23;4.50;;;0.40;99.90;;;;;;5051465;28;20471;-70
2021/01/25 02:40:37;;;;;;;4.60;3.80;;;0.50;99.90;;;;;;5051403;28;20444;-72
2021/01/25 02:43:04;;;;;;;5.93;3.60;;;0.50;99.90;;;;;;5051489;28;20836;-70
2021/01/25 02:45:33;;;;;;;5.87;4.63;;;0.60;99.90;;;;;;5051298;28;20998;-70
2021/01/25 02:48:00;;;;;;;5.40;4.87;;;0.70;99.90;;;;;;5051291;28;20428;-69
2021/01/25 02:50:27;;;;;;;5.00;4.50;;;0.70;99.90;;;;;;5050994;28;20913;-69
2021/01/25 02:52:53;;;;;;;7.17;5.17;;;0.70;99.90;;;;;;5051304;28;20459;-69
2021/01/25 02:55:20;;;;;;;7.90;4.57;;;0.80;99.90;;;;;;5051291;28;20801;-71
2021/01/25 02:57:47;;;;;;;5.57;4.20;;;0.90;99.90;;;;;;5051519;28;20779;-70
2021/01/25 03:00:14;;;;;;;5.57;4.93;;;0.90;99.90;;;;;;5050882;28;20436;-69
2021/01/25 03:02:42;;;;;;;5.20;4.33;;;0.90;99.90;;;;;;5051096;28;20955;-70
2021/01/25 03:05:10;;;;;;;4.40;4.00;;;1.00;99.90;;;;;;5050981;28;20440;-70
2021/01/25 03:07:36;;;;;;;7.40;4.70;;;1.00;99.90;;;;;;5050880;28;20444;-71
2021/01/25 03:10:06;;;;;;;4.13;3.40;;;1.00;99.90;;;;;;5050685;28;20467;-70
2021/01/25 03:12:32;;;;;;;5.83;3.77;;;0.90;99.90;;;;;;5051010;28;20452;-69
2021/01/25 03:14:59;;;;;;;5.43;4.60;;;1.00;99.90;;;;;;5050631;28;20454;-69
2021/01/25 03:17:26;;;;;;;5.07;3.83;;;1.10;99.90;;;;;;5051045;28;20524;-69
2021/01/25 03:19:53;;;;;;;4.27;3.87;;;1.10;99.90;;;;;;5050364;28;20436;-69
2021/01/25 03:22:19;;;;;;;4.93;3.87;;;1.10;99.90;;;;;;5050366;28;20483;-69
2021/01/25 03:24:46;;;;;;;5.50;4.20;;;1.20;99.90;;;;;;5050495;28;20436;-70
2021/01/25 03:27:12;;;;;;;5.27;3.87;;;1.30;99.90;;;;;;5050506;28;20454;-70
2021/01/25 03:29:39;;;;;;;5.37;4.13;;;1.30;99.90;;;;;;5050474;28;20452;-70
2021/01/25 03:32:06;;;;;;;4.60;4.20;;;1.20;99.90;;;;;;5050498;28;20452;-70
2021/01/25 03:34:32;;;;;;;5.40;4.70;;;1.10;99.90;;;;;;5050705;28;20455;-69
2021/01/25 03:37:00;;;;;;;4.37;3.97;;;1.00;99.90;;;;;;5050556;28;20475;-69
2021/01/25 03:39:27;;;;;;;7.50;3.80;;;1.00;99.90;;;;;;5050793;28;20593;-69
2021/01/25 03:41:53;;;;;;;6.30;4.87;;;0.90;99.90;;;;;;5050718;28;20826;-71
2021/01/25 03:44:20;;;;;;;5.30;4.50;;;0.90;99.90;;;;;;5050601;28;20802;-70
2021/01/25 03:46:47;;;;;;;6.53;5.83;;;0.90;99.90;;;;;;5043234;28;20478;-70
2021/01/25 03:49:15;;;;;;;6.83;5.13;;;1.00;99.90;;;;;;5050374;28;20507;-69
2021/01/25 03:51:41;;;;;;;6.50;4.87;;;1.00;99.90;;;;;;5049922;28;20464;-71
2021/01/25 03:54:11;;;;;;;5.43;4.93;;;1.00;99.90;;;;;;5051467;28;20447;-71
2021/01/25 03:56:37;;;;;;;8.40;5.80;;;0.90;99.90;;;;;;5053486;28;20668;-70
2021/01/25 03:59:04;;;;;;;6.27;5.30;;;0.90;99.90;;;;;;5054515;28;21013;-70
2021/01/25 04:01:31;;;;;;;6.40;5.80;;;0.90;99.90;;;;;;5054485;28;21239;-70
2021/01/25 04:03:57;;;;;;;5.40;4.90;;;0.90;99.90;;;;;;5054594;28;20439;-70
2021/01/25 04:06:24;;;;;;;7.20;5.30;;;0.80;99.90;;;;;;5054521;28;20436;-70
2021/01/25 04:08:50;;;;;;;6.40;4.77;;;0.80;99.90;;;;;;5054340;28;20439;-70
2021/01/25 04:11:18;;;;;;;8.27;5.90;;;0.90;99.90;;;;;;5054301;28;20432;-70
2021/01/25 04:13:44;;;;;;;6.60;5.33;;;0.90;99.90;;;;;;5054463;28;20455;-71
2021/01/25 04:16:11;;;;;;;6.70;5.70;;;0.90;99.90;;;;;;5054336;28;20479;-70
2021/01/25 04:18:37;;;;;;;6.00;5.30;;;0.80;99.90;;;;;;5054376;28;20444;-70
2021/01/25 04:21:04;;;;;;;7.33;6.10;;;0.70;99.90;;;;;;5053828;28;20521;-70
2021/01/25 04:23:31;;;;;;;7.47;5.80;;;0.60;99.90;;;;;;5054595;28;20436;-70
2021/01/25 04:25:57;;;;;;;9.53;5.70;;;0.60;99.90;;;;;;5054086;28;20490;-70
2021/01/25 04:28:25;;;;;;;9.03;6.13;;;0.60;99.90;;;;;;5054352;28;20692;-70
2021/01/25 04:30:51;;;;;;;6.87;5.30;;;0.70;99.90;;;;;;5053912;28;20450;-70
2021/01/25 04:33:18;;;;;;;9.60;6.13;;;0.70;99.90;;;;;;5054122;28;20463;-70
2021/01/25 04:35:44;;;;;;;7.53;5.50;;;0.70;99.90;;;;;;5053826;28;20439;-70
2021/01/25 04:38:11;;;;;;;7.53;6.47;;;0.70;99.90;;;;;;5054317;28;20451;-71
2021/01/25 04:40:38;;;;;;;7.70;6.40;;;0.70;99.90;;;;;;5053886;28;20443;-69
2021/01/25 04:43:04;;;;;;;6.63;5.77;;;0.70;99.90;;;;;;5053945;28;20455;-70
2021/01/25 04:45:32;;;;;;;9.73;5.77;;;0.80;99.90;;;;;;5053776;28;20486;-70
2021/01/25 04:48:00;;;;;;;7.43;6.40;;;0.80;99.90;;;;;;5053980;28;20468;-69
2021/01/25 04:50:27;;;;;;;9.07;6.23;;;0.80;99.90;;;;;;5053856;28;20432;-70
2021/01/25 04:52:54;;;;;;;7.70;5.80;;;0.80;99.90;;;;;;5053695;28;20459;-70
2021/01/25 04:55:21;;;;;;;6.77;5.57;;;0.80;99.90;;;;;;5053795;28;20450;-69
2021/01/25 04:57:50;;;;;;;8.10;6.23;;;0.80;99.90;;;;;;5054158;28;20560;-70
2021/01/25 05:00:19;;;;;;;9.90;6.07;;;0.80;99.90;;;;;;5053598;28;20663;-70
2021/01/25 05:02:47;;;;;;;7.90;7.00;;;0.70;99.90;;;;;;5053725;28;20506;-70
2021/01/25 05:05:13;;;;;;;8.47;7.23;;;0.70;99.90;;;;;;5052253;28;20470;-70
2021/01/25 05:07:40;;;;;;;7.20;6.20;;;0.60;99.90;;;;;;5053671;28;20924;-70
2021/01/25 05:10:08;;;;;;;7.17;5.70;;;0.60;99.90;;;;;;5053294;28;20444;-70
2021/01/25 05:12:43;;;;;;;7.90;6.80;;;0.70;99.90;;;;;;5053562;28;20456;-70
2021/01/25 05:15:11;;;;;;;9.10;7.13;;;0.70;99.90;;;;;;5053372;28;20432;-70
2021/01/25 05:17:37;;;;;;;7.93;7.10;;;0.80;99.90;;;;;;5053225;28;20890;-69
2021/01/25 05:20:08;;;;;;;7.70;6.03;;;0.70;99.90;;;;;;5053293;28;20436;-70
2021/01/25 05:22:38;;;;;;;9.30;6.73;;;0.70;99.90;;;;;;5049572;28;20883;-70
2021/01/25 05:25:08;;;;;;;9.27;6.67;;;0.80;99.90;;;;;;5053605;28;20539;-69
2021/01/25 05:27:35;;;;;;;7.77;6.97;;;0.80;99.90;;;;;;5053482;28;20436;-70
2021/01/25 05:30:10;;;;;;;8.00;7.20;;;0.70;99.90;;;;;;5053405;28;20484;-70
2021/01/25 05:32:47;;;;;;;8.30;7.37;;;0.70;99.90;;;;;;5052785;28;20513;-69
2021/01/25 05:35:15;;;;;;;8.07;7.27;;;0.70;99.90;;;;;;5052720;28;20458;-70
2021/01/25 05:37:43;;;;;;;8.87;7.50;;;0.70;99.90;;;;;;5052387;28;20545;-70
2021/01/25 05:40:15;;;;;;;9.90;7.00;;;0.80;99.90;;;;;;5051580;28;20437;-70
2021/01/25 05:42:43;;;;;;;8.93;7.30;;;0.80;99.90;;;;;;5052136;28;20551;-70
2021/01/25 05:45:11;;;;;;;8.87;7.97;;;0.80;99.90;;;;;;5052858;28;20441;-70
2021/01/25 05:47:48;;;;;;;8.97;7.60;;;0.80;99.90;;;;;;5052500;28;20448;-71
2021/01/25 05:50:30;;;;;;;9.00;7.70;;;0.80;99.90;;;;;;5045849;28;20447;-70
2021/01/25 05:52:59;;;;;;;11.00;7.93;;;0.80;99.90;;;;;;5052567;28;20464;-70
2021/01/25 05:55:25;;;;;;;10.00;8.37;;;0.70;99.90;;;;;;5052344;28;20436;-70
2021/01/25 05:57:52;;;;;;;10.93;8.70;;;0.80;99.90;;;;;;5052016;28;20504;-70
2021/01/25 06:00:20;;;;;;;11.37;9.10;;;0.90;99.90;;;;;;5052099;28;20455;-70
2021/01/25 06:02:48;;;;;;;8.70;7.67;;;0.90;99.90;;;;;;5052402;28;20828;-70
2021/01/25 06:05:22;;;;;;;11.20;8.03;;;0.90;99.90;;;;;;5052032;28;20447;-71
2021/01/25 06:07:51;;;;;;;12.80;10.00;;;0.90;99.90;;;;;;5052619;28;20526;-69
2021/01/25 06:10:25;;;;;;;13.17;10.40;;;0.90;99.90;;;;;;5051671;28;20806;-70
2021/01/25 06:12:58;;;;;;;11.00;8.83;;;0.90;99.90;;;;;;5052487;28;20459;-70
2021/01/25 06:15:29;;;;;;;11.00;9.03;;;0.90;99.90;;;;;;5052307;28;20436;-71
2021/01/25 06:17:59;;;;;;;11.10;9.30;;;0.90;99.90;;;;;;5051843;28;20482;-70
2021/01/25 06:20:28;;;;;;;17.00;12.50;;;0.90;99.90;;;;;;5051348;28;20436;-70
2021/01/25 06:22:56;;;;;;;13.47;10.50;;;0.90;99.90;;;;;;5051708;28;20528;-70
2021/01/25 06:25:24;;;;;;;15.07;10.60;;;1.00;99.90;;;;;;5052213;28;20433;-70
2021/01/25 06:27:55;;;;;;;11.17;9.97;;;1.00;99.90;;;;;;5051656;28;20448;-68
2021/01/25 06:30:25;;;;;;;14.20;10.10;;;1.00;99.90;;;;;;5051402;28;20463;-68
2021/01/25 06:32:52;;;;;;;13.40;10.00;;;1.00;99.90;;;;;;5051567;28;20539;-68
2021/01/25 06:35:19;;;;;;;10.20;8.47;;;1.00;99.90;;;;;;5051460;28;20468;-68
2021/01/25 06:37:54;;;;;;;13.13;9.80;;;1.00;99.90;;;;;;5051533;28;20563;-68
2021/01/25 06:40:26;;;;;;;12.80;10.40;;;0.90;99.90;;;;;;5040844;28;20484;-69
2021/01/25 06:42:54;;;;;;;13.60;10.17;;;0.90;99.90;;;;;;5050214;28;20738;-70
2021/01/25 06:45:24;;;;;;;13.60;10.03;;;0.90;99.90;;;;;;5051189;28;20535;-69
2021/01/25 06:47:52;;;;;;;15.53;11.70;;;0.90;99.90;;;;;;5042320;28;20938;-69
2021/01/25 06:50:20;;;;;;;12.70;10.20;;;0.90;99.90;;;;;;5049245;28;20463;-69
2021/01/25 06:52:50;;;;;;;13.70;9.63;;;0.90;99.90;;;;;;5043312;28;20508;-69
2021/01/25 06:55:17;;;;;;;16.47;9.30;;;0.90;99.90;;;;;;5043668;28;20519;-69
2021/01/25 06:57:47;;;;;;;11.20;9.40;;;0.90;99.90;;;;;;5049492;28;20472;-69
2021/01/25 07:00:19;;;;;;;12.67;10.03;;;0.90;99.90;;;;;;5049268;28;21000;-69
2021/01/25 07:02:57;;;;;;;14.13;10.73;;;1.00;99.90;;;;;;5049116;28;20452;-69
2021/01/25 07:05:28;;;;;;;14.77;10.00;;;1.00;99.90;;;;;;5049334;28;20463;-69
2021/01/25 07:08:20;;;;;;;15.13;9.67;;;1.00;99.90;;;;;;5043274;28;20920;-69
2021/01/25 07:10:58;;;;;;;12.73;9.33;;;1.00;99.90;;;;;;5050778;28;20494;-69
2021/01/25 07:13:28;;;;;;;11.63;8.80;;;1.00;99.90;;;;;;5043249;28;20464;-68
2021/01/25 07:15:55;;;;;;;14.13;10.00;;;1.00;99.90;;;;;;5049896;28;20448;-69
2021/01/25 07:18:23;;;;;;;15.53;10.13;;;1.00;99.90;;;;;;5050312;28;20440;-67
2021/01/25 07:20:51;;;;;;;19.70;11.53;;;1.00;99.90;;;;;;5048205;28;20455;-67
2021/01/25 07:23:19;;;;;;;12.77;10.03;;;1.10;99.90;;;;;;5046272;28;20467;-70
2021/01/25 07:25:52;;;;;;;13.20;9.97;;;1.10;99.90;;;;;;5037809;28;20452;-70
2021/01/25 07:28:19;;;;;;;12.77;9.50;;;1.10;99.90;;;;;;5046938;28;20432;-70
2021/01/25 07:30:47;;;;;;;15.83;10.03;;;1.10;99.90;;;;;;5047702;28;20436;-70
2021/01/25 07:33:13;;;;;;;14.70;9.57;;;1.20;99.90;;;;;;5048235;28;20475;-70
2021/01/25 07:35:40;;;;;;;15.37;10.80;;;1.20;99.90;;;;;;5047449;28;20458;-69
2021/01/25 07:38:07;;;;;;;17.33;10.80;;;1.20;99.90;;;;;;5047294;28;20527;-68
2021/01/25 07:40:34;;;;;;;14.00;9.70;;;1.30;99.90;;;;;;5048245;28;20439;-69
2021/01/25 07:43:03;;;;;;;13.53;10.47;;;1.30;99.90;;;;;;5048384;28;20471;-69
2021/01/25 07:45:30;;;;;;;11.90;10.30;;;1.30;99.90;;;;;;5047830;28;20448;-69
2021/01/25 07:47:58;;;;;;;13.63;11.33;;;1.30;99.90;;;;;;5042456;28;20955;-70
2021/01/25 07:50:25;;;;;;;13.77;11.40;;;1.40;99.90;;;;;;5048320;28;20432;-69
2021/01/25 07:52:58;;;;;;;19.93;11.97;;;1.40;99.90;;;;;;5047836;28;20830;-69
2021/01/25 07:55:25;;;;;;;17.30;11.77;;;1.40;99.90;;;;;;5048445;28;20443;-70
2021/01/25 07:57:51;;;;;;;13.67;11.20;;;1.60;99.90;;;;;;5048017;28;20558;-72
2021/01/25 08:00:20;;;;;;;18.67;11.90;;;1.60;99.90;;;;;;5047443;28;20963;-75
2021/01/25 08:02:53;;;;;;;16.27;11.23;;;1.70;99.90;;;;;;5048755;28;20459;-70
2021/01/25 08:05:21;;;;;;;20.70;11.93;;;1.70;99.90;;;;;;5048222;28;20444;-71
2021/01/25 08:07:52;;;;;;;14.37;11.53;;;1.70;99.90;;;;;;5048246;28;20845;-71
2021/01/25 08:10:19;;;;;;;19.83;11.87;;;1.70;99.90;;;;;;5048437;28;20428;-71
2021/01/25 08:12:46;;;;;;;14.37;11.07;;;1.70;99.90;;;;;;5048068;28;20499;-71
2021/01/25 08:15:20;;;;;;;16.70;11.90;;;1.60;99.90;;;;;;5048736;28;20821;-70
2021/01/25 08:17:53;;;;;;;18.40;12.47;;;1.50;99.90;;;;;;5049257;28;20459;-74
2021/01/25 08:20:22;;;;;;;17.03;12.70;;;1.40;99.90;;;;;;5048835;28;20960;-75
2021/01/25 08:22:54;;;;;;;16.00;13.30;;;1.30;99.90;;;;;;5050545;28;20832;-74
2021/01/25 08:25:23;;;;;;;18.80;12.40;;;1.30;99.90;;;;;;5049919;28;20440;-74
2021/01/25 08:28:00;;;;;;;15.80;12.77;;;1.30;99.90;;;;;;5048324;28;20432;-73
2021/01/25 08:30:34;;;;;;;18.57;12.13;;;1.30;99.90;;;;;;5049147;28;20436;-76
2021/01/25 08:33:02;;;;;;;18.97;13.63;;;1.30;99.90;;;;;;5055053;28;20482;-74
2021/01/25 08:35:31;;;;;;;18.93;12.50;;;1.30;99.90;;;;;;5048943;28;20432;-74
2021/01/25 08:38:10;;;;;;;16.30;13.50;;;1.40;99.90;;;;;;5047913;28;20491;-75
2021/01/25 08:40:39;;;;;;;20.27;13.43;;;1.50;99.90;;;;;;5050747;28;20436;-74
2021/01/25 08:43:17;;;;;;;14.90;12.60;;;1.60;99.90;;;;;;5052976;28;21065;-75
2021/01/25 08:45:50;;;;;;;15.60;13.53;;;1.70;99.90;;;;;;5053220;28;20614;-75
2021/01/25 08:48:26;;;;;;;16.30;13.17;;;1.70;99.90;;;;;;5051854;28;21063;-74
2021/01/25 08:50:53;;;;;;;14.50;12.27;;;1.80;99.90;;;;;;5048939;28;20998;-72
2021/01/25 08:53:30;;;;;;;19.03;14.27;;;1.90;99.90;;;;;;5049286;28;20456;-75
2021/01/25 08:55:58;;;;;;;15.20;13.00;;;1.90;99.90;;;;;;5048183;28;20963;-75
2021/01/25 08:58:29;;;;;;;21.67;17.60;;;2.00;99.90;;;;;;5052340;28;20871;-74
2021/01/25 09:00:58;;;;;;;20.83;16.13;;;2.00;99.90;;;;;;5052002;28;20455;-73
2021/01/25 09:03:27;;;;;;;18.30;14.00;;;2.00;99.90;;;;;;5051794;28;20464;-74
2021/01/25 09:05:55;;;;;;;16.90;13.00;;;2.00;99.90;;;;;;5051283;28;20497;-72
2021/01/25 09:08:22;;;;;;;18.00;13.00;;;1.90;99.90;;;;;;5051521;28;20978;-74
2021/01/25 09:10:52;;;;;;;18.47;14.00;;;1.90;99.90;;;;;;5051171;28;20447;-75
2021/01/25 09:13:18;;;;;;;17.60;14.40;;;1.90;99.90;;;;;;5050625;28;21004;-76
2021/01/25 09:15:45;;;;;;;18.50;14.30;;;1.90;99.90;;;;;;5051140;28;20432;-72
2021/01/25 09:18:13;;;;;;;17.30;14.23;;;2.00;99.90;;;;;;5050102;28;20614;-74
2021/01/25 09:20:39;;;;;;;18.63;14.70;;;2.00;99.90;;;;;;5050150;28;20455;-74
2021/01/25 09:23:07;;;;;;;20.03;13.97;;;2.00;99.90;;;;;;5047439;28;20452;-75
2021/01/25 09:25:33;;;;;;;18.57;15.70;;;2.00;99.90;;;;;;5051788;28;20946;-76
2021/01/25 09:28:00;;;;;;;21.47;14.27;;;2.10;99.90;;;;;;5052478;28;20436;-76
2021/01/25 09:30:28;;;;;;;17.03;14.00;;;2.10;99.90;;;;;;5051861;28;20460;-73
2021/01/25 09:32:55;;;;;;;18.63;15.30;;;2.10;99.90;;;;;;5049984;28;20525;-75
2021/01/25 09:35:23;;;;;;;19.17;14.57;;;2.00;99.90;;;;;;5051260;28;20827;-74
2021/01/25 09:37:50;;;;;;;16.50;14.40;;;2.10;99.90;;;;;;5051262;28;21000;-76
2021/01/25 09:40:17;;;;;;;20.53;15.07;;;2.10;99.90;;;;;;5050808;28;20949;-75
2021/01/25 09:42:44;;;;;;;22.20;15.43;;;2.20;99.90;;;;;;5051193;28;20857;-73
2021/01/25 09:45:13;;;;;;;19.03;14.63;;;2.20;99.90;;;;;;5050547;28;20443;-72
2021/01/25 09:47:41;;;;;;;18.23;14.83;;;2.20;99.90;;;;;;5057203;28;20448;-72
2021/01/25 09:50:10;;;;;;;17.63;15.50;;;2.30;99.90;;;;;;5051200;28;20452;-74
2021/01/25 09:52:38;;;;;;;17.90;16.00;;;2.30;99.90;;;;;;5046436;28;20464;-74
2021/01/25 09:55:05;;;;;;;20.70;15.10;;;2.30;99.90;;;;;;5045463;28;20452;-75
2021/01/25 09:57:32;;;;;;;20.40;15.73;;;2.40;99.90;;;;;;5050746;28;20483;-74
2021/01/25 09:59:58;;;;;;;23.17;16.80;;;2.40;99.90;;;;;;5046459;28;20475;-74
2021/01/25 10:02:25;;;;;;;17.93;14.47;;;2.40;99.90;;;;;;5044054;28;20453;-71
2021/01/25 10:04:52;;;;;;;17.80;15.00;;;2.50;99.90;;;;;;5044743;28;20459;-75
2021/01/25 10:07:19;;;;;;;20.20;15.50;;;2.60;99.90;;;;;;5052007;28;20517;-74
2021/01/25 10:09:46;;;;;;;23.93;15.87;;;2.70;99.90;;;;;;5052103;28;20937;-75
2021/01/25 10:12:13;;;;;;;19.60;16.60;;;2.90;99.90;;;;;;5052131;28;20448;-76
2021/01/25 10:14:39;;;;;;;16.90;14.93;;;3.20;99.90;;;;;;5052569;28;20446;-74
2021/01/25 10:17:06;;;;;;;18.33;13.73;;;3.60;99.90;;;;;;5051667;28;20496;-74
2021/01/25 10:19:33;;;;;;;15.77;13.63;;;4.00;99.90;;;;;;5049229;28;20448;-75
2021/01/25 10:21:59;;;;;;;15.43;13.60;;;4.30;99.90;;;;;;5055982;28;20471;-73
2021/01/25 10:24:26;;;;;;;14.70;12.70;;;4.50;99.90;;;;;;5050830;28;20979;-74
2021/01/25 10:26:53;;;;;;;17.60;13.10;;;4.60;99.90;;;;;;5051020;28;20816;-74
2021/01/25 10:29:20;;;;;;;15.60;13.70;;;4.60;99.90;;;;;;5050137;28;20545;-73
2021/01/25 10:31:46;;;;;;;16.67;13.07;;;4.50;99.90;;;;;;5048764;28;20456;-72
2021/01/25 10:34:13;;;;;;;16.57;13.70;;;4.50;99.90;;;;;;5049910;28;20851;-75
2021/01/25 10:36:39;;;;;;;14.10;12.70;;;4.50;99.90;;;;;;5049718;28;20463;-74
2021/01/25 10:39:06;;;;;;;15.63;14.03;;;4.40;99.90;;;;;;5049507;28;20926;-74
2021/01/25 10:41:32;;;;;;;16.77;14.00;;;4.20;99.90;;;;;;5049561;28;20467;-72
2021/01/25 10:44:00;;;;;;;16.43;14.20;;;4.20;99.90;;;;;;5049844;28;20451;-72
2021/01/25 10:46:26;;;;;;;15.37;13.40;;;4.10;99.90;;;;;;5049963;28;20436;-75
2021/01/25 10:48:53;;;;;;;19.63;15.30;;;4.00;99.90;;;;;;5049677;28;20513;-72
2021/01/25 10:51:20;;;;;;;19.47;15.53;;;4.20;99.90;;;;;;5049243;28;20440;-73
2021/01/25 10:53:46;;;;;;;15.93;14.33;;;4.20;99.90;;;;;;5041724;28;20501;-72
2021/01/25 10:56:13;;;;;;;15.97;14.13;;;4.50;99.90;;;;;;5048150;28;20435;-72
2021/01/25 10:58:39;;;;;;;14.07;12.67;;;4.60;99.90;;;;;;5048859;28;20432;-72
2021/01/25 11:01:07;;;;;;;14.83;13.23;;;4.60;99.90;;;;;;5048535;28;20792;-71
2021/01/25 11:03:36;;;;;;;14.20;12.70;;;4.60;99.90;;;;;;5048820;28;20917;-71
2021/01/25 11:06:03;;;;;;;16.90;12.63;;;4.60;99.90;;;;;;5048855;28;20428;-73
2021/01/25 11:08:29;;;;;;;15.17;11.70;;;4.80;99.90;;;;;;5049029;28;20448;-72
2021/01/25 11:10:56;;;;;;;14.70;11.90;;;5.00;99.90;;;;;;5049338;28;20463;-74
2021/01/25 11:13:22;;;;;;;12.93;11.57;;;5.20;99.90;;;;;;5049101;28;20483;-73
2021/01/25 11:15:49;;;;;;;13.73;11.80;;;5.20;99.90;;;;;;5049023;28;20452;-73
2021/01/25 11:18:16;;;;;;;14.23;12.00;;;5.10;99.90;;;;;;5048893;28;20480;-73
2021/01/25 11:20:43;;;;;;;12.50;11.00;;;4.90;99.90;;;;;;5047904;28;20501;-72
2021/01/25 11:23:10;;;;;;;13.63;11.73;;;4.80;99.90;;;;;;5048990;28;21010;-72
2021/01/25 11:25:36;;;;;;;15.53;11.37;;;4.70;99.90;;;;;;5048593;28;20452;-73
2021/01/25 11:28:03;;;;;;;13.30;11.70;;;4.70;99.90;;;;;;5048718;28;20432;-76
2021/01/25 11:30:30;;;;;;;13.37;12.00;;;4.60;99.90;;;;;;5048737;28;20459;-72
2021/01/25 11:33:00;;;;;;;15.60;11.83;;;4.60;99.90;;;;;;5048808;28;20522;-76
2021/01/25 11:35:27;;;;;;;12.20;10.70;;;4.50;99.90;;;;;;5048520;28;20821;-72
2021/01/25 11:37:54;;;;;;;13.33;11.83;;;4.40;99.90;;;;;;5049058;28;20480;-71
2021/01/25 11:40:21;;;;;;;14.23;11.37;;;4.30;99.90;;;;;;5048874;28;20432;-72
2021/01/25 11:42:48;;;;;;;11.20;9.73;;;4.40;99.90;;;;;;5048965;28;20459;-72
2021/01/25 11:45:15;;;;;;;11.43;8.40;;;4.40;99.90;;;;;;5048150;28;20443;-72
2021/01/25 11:47:45;;;;;;;8.73;6.43;;;4.30;99.90;;;;;;5049164;28;20444;-72
2021/01/25 11:50:12;;;;;;;7.83;6.37;;;4.30;99.90;;;;;;5049373;28;20972;-73
2021/01/25 11:52:40;;;;;;;6.23;3.30;;;4.50;99.90;;;;;;5046633;28;20460;-74
2021/01/25 11:55:08;;;;;;;5.47;3.30;;;4.50;99.90;;;;;;5045538;28;20977;-73
2021/01/25 11:57:35;;;;;;;3.73;3.33;;;4.40;99.90;;;;;;5048026;28;21046;-74
2021/01/25 12:00:01;;;;;;;4.10;3.37;;;4.30;99.90;;;;;;5047341;28;20472;-74
2021/01/25 12:02:28;;;;;;;3.70;3.30;;;4.20;99.90;;;;;;5048886;28;20444;-74
2021/01/25 12:04:54;;;;;;;5.10;3.03;;;4.20;99.90;;;;;;5049551;28;20441;-74
2021/01/25 12:07:22;;;;;;;3.00;2.47;;;4.30;99.90;;;;;;5048684;28;20771;-73
2021/01/25 12:09:50;;;;;;;3.50;2.23;;;4.40;99.90;;;;;;5048298;28;20440;-73
2021/01/25 12:12:17;;;;;;;3.60;1.53;;;4.60;99.90;;;;;;5048444;28;20456;-71
2021/01/25 12:14:43;;;;;;;5.13;1.40;;;4.70;99.90;;;;;;5043342;28;20436;-73
2021/01/25 12:17:10;;;;;;;2.00;1.40;;;4.40;99.90;;;;;;5054007;28;20471;-71
2021/01/25 12:19:36;;;;;;;2.10;1.30;;;4.40;99.90;;;;;;5058073;28;20467;-70
2021/01/25 12:22:03;;;;;;;1.97;1.27;;;4.30;99.90;;;;;;5055796;28;20452;-73
2021/01/25 12:24:29;;;;;;;3.40;1.30;;;4.30;99.90;;;;;;5053330;28;20635;-72
2021/01/25 12:26:57;;;;;;;1.87;1.37;;;4.30;99.90;;;;;;5045419;28;20438;-71
2021/01/25 12:29:23;;;;;;;2.07;1.33;;;4.30;99.90;;;;;;5055012;28;20488;-72
2021/01/25 12:31:50;;;;;;;2.33;1.37;;;4.20;99.90;;;;;;5059488;28;20460;-71
2021/01/25 12:34:17;;;;;;;2.20;1.50;;;4.20;99.90;;;;;;5064960;28;20439;-72
2021/01/25 12:36:43;;;;;;;2.43;1.27;;;4.20;99.90;;;;;;5053832;28;20484;-74
2021/01/25 12:39:10;;;;;;;4.87;1.50;;;4.20;99.90;;;;;;5049297;28;20443;-71
2021/01/25 12:41:37;;;;;;;2.63;1.77;;;4.30;99.90;;;;;;5046885;28;20476;-71
2021/01/25 12:44:05;;;;;;;1.60;1.10;;;4.30;99.90;;;;;;5061285;28;20470;-72
2021/01/25 12:46:34;;;;;;;2.10;1.40;;;4.50;99.90;;;;;;5054631;28;20460;-72
2021/01/25 12:49:01;;;;;;;5.00;1.60;;;4.50;99.90;;;;;;5052730;28;20443;-72
2021/01/25 12:51:28;;;;;;;1.70;1.10;;;4.70;99.90;;;;;;5053741;28;20460;-72